Aviation Digital Data Service (ADDS)

Output produced by METARs form (1207 UTC 22 March 2019)
found at http://www.aviationweather.gov/metar/data/
 
METAR text: ETNN 221120Z 11006KT 9999 FEW300 16/04 Q1029 BLU+FCST CANCEL
Conditions at: ETNN (NOERVENICH (GAF), DE) observed 1120 UTC 22 March 2019
Temperature: 16.0°C (61°F)
Dewpoint: 4.0°C (39°F) [RH = 45%]
Pressure (altimeter): 30.38 inches Hg (1029.0 mb)
Winds: from the ESE (110 degrees) at 7 MPH (6 knots; 3.1 m/s)
Visibility: 6 or more miles (10+ km)
Ceiling: at least 12,000 feet AGL
Clouds: few clouds at 30000 feet AGL
Weather: no significant weather observed at this time

METAR text: ETNN 221020Z VRB03KT 9999 SCT300 14/05 Q1030 BLU+BLU+
Conditions at: ETNN (NOERVENICH (GAF), DE) observed 1020 UTC 22 March 2019
Temperature: 14.0°C (57°F)
Dewpoint: 5.0°C (41°F) [RH = 55%]
Pressure (altimeter): 30.41 inches Hg (1030.0 mb)
Winds: variable direction winds at 3 MPH (3 knots; 1.5 m/s)
Visibility: 6 or more miles (10+ km)
Ceiling: at least 12,000 feet AGL
Clouds: scattered clouds at 30000 feet AGL
Weather: no significant weather observed at this time

METAR text: ETNN 220920Z VRB03KT 9999 SCT280 11/04 Q1031 BLU+BLU+
Conditions at: ETNN (NOERVENICH (GAF), DE) observed 0920 UTC 22 March 2019
Temperature: 11.0°C (52°F)
Dewpoint: 4.0°C (39°F) [RH = 62%]
Pressure (altimeter): 30.44 inches Hg (1031.0 mb)
Winds: variable direction winds at 3 MPH (3 knots; 1.5 m/s)
Visibility: 6 or more miles (10+ km)
Ceiling: at least 12,000 feet AGL
Clouds: scattered clouds at 28000 feet AGL
Weather: no significant weather observed at this time

METAR text: ETNN 220820Z 12003KT 9999 SCT300 08/04 Q1031 BLU+BLU+
Conditions at: ETNN (NOERVENICH (GAF), DE) observed 0820 UTC 22 March 2019
Temperature: 8.0°C (46°F)
Dewpoint: 4.0°C (39°F) [RH = 76%]
Pressure (altimeter): 30.44 inches Hg (1031.0 mb)
Winds: from the ESE (120 degrees) at 3 MPH (3 knots; 1.5 m/s)
Visibility: 6 or more miles (10+ km)
Ceiling: at least 12,000 feet AGL
Clouds: scattered clouds at 30000 feet AGL
Weather: no significant weather observed at this time

METAR text: ETNN 220720Z 14003KT 9999 SCT300 06/03 Q1031 BLU+BLU+
Conditions at: ETNN (NOERVENICH (GAF), DE) observed 0720 UTC 22 March 2019
Temperature: 6.0°C (43°F)
Dewpoint: 3.0°C (37°F) [RH = 81%]
Pressure (altimeter): 30.44 inches Hg (1031.0 mb)
Winds: from the SE (140 degrees) at 3 MPH (3 knots; 1.5 m/s)
Visibility: 6 or more miles (10+ km)
Ceiling: at least 12,000 feet AGL
Clouds: scattered clouds at 30000 feet AGL
Weather: no significant weather observed at this time

METAR text: ETNN 220620Z 19005KT 8000 SCT300 02/02 Q1031 BLU+BLU+
Conditions at: ETNN (NOERVENICH (GAF), DE) observed 0620 UTC 22 March 2019
Temperature: 2.0°C (36°F)
Dewpoint: 2.0°C (36°F) [RH = 100%]
Pressure (altimeter): 30.44 inches Hg (1031.0 mb)
Winds: from the S (190 degrees) at 6 MPH (5 knots; 2.6 m/s)
Visibility: 5 miles ( 8 km)
Ceiling: at least 12,000 feet AGL
Clouds: scattered clouds at 30000 feet AGL
Weather: no significant weather observed at this time

METAR text: ETNN 220520Z VRB01KT 9999 SCT300 02/01 Q1031 BLU+BLU+
Conditions at: ETNN (NOERVENICH (GAF), DE) observed 0520 UTC 22 March 2019
Temperature: 2.0°C (36°F)
Dewpoint: 1.0°C (34°F) [RH = 93%]
Pressure (altimeter): 30.44 inches Hg (1031.0 mb)
Winds: variable direction winds at 1 MPH (1 knots; 0.5 m/s)
Visibility: 6 or more miles (10+ km)
Ceiling: at least 12,000 feet AGL
Clouds: scattered clouds at 30000 feet AGL
Weather: no significant weather observed at this time

METAR text: ETNN 220420Z 18003KT 9999 SCT300 02/01 Q1031 BLU+
Conditions at: ETNN (NOERVENICH (GAF), DE) observed 0420 UTC 22 March 2019
Temperature: 2.0°C (36°F)
Dewpoint: 1.0°C (34°F) [RH = 93%]
Pressure (altimeter): 30.44 inches Hg (1031.0 mb)
Winds: from the S (180 degrees) at 3 MPH (3 knots; 1.5 m/s)
Visibility: 6 or more miles (10+ km)
Ceiling: at least 12,000 feet AGL
Clouds: scattered clouds at 30000 feet AGL
Weather: no significant weather observed at this time

METAR text: ETNN 220320Z 18003KT 9999 SCT300 02/01 Q1031 BLU+
Conditions at: ETNN (NOERVENICH (GAF), DE) observed 0320 UTC 22 March 2019
Temperature: 2.0°C (36°F)
Dewpoint: 1.0°C (34°F) [RH = 93%]
Pressure (altimeter): 30.44 inches Hg (1031.0 mb)
Winds: from the S (180 degrees) at 3 MPH (3 knots; 1.5 m/s)
Visibility: 6 or more miles (10+ km)
Ceiling: at least 12,000 feet AGL
Clouds: scattered clouds at 30000 feet AGL
Weather: no significant weather observed at this time

METAR text: ETNN 220220Z 17003KT 9999 FEW320 03/02 Q1031 BLU+
Conditions at: ETNN (NOERVENICH (GAF), DE) observed 0220 UTC 22 March 2019
Temperature: 3.0°C (37°F)
Dewpoint: 2.0°C (36°F) [RH = 93%]
Pressure (altimeter): 30.44 inches Hg (1031.0 mb)
Winds: from the S (170 degrees) at 3 MPH (3 knots; 1.5 m/s)
Visibility: 6 or more miles (10+ km)
Ceiling: at least 12,000 feet AGL
Clouds: few clouds at 32000 feet AGL
Weather: no significant weather observed at this time

METAR text: ETNN 220120Z 27002KT 9999 FEW400 04/02 Q1031 BLU+
Conditions at: ETNN (NOERVENICH (GAF), DE) observed 0120 UTC 22 March 2019
Temperature: 4.0°C (39°F)
Dewpoint: 2.0°C (36°F) [RH = 87%]
Pressure (altimeter): 30.44 inches Hg (1031.0 mb)
Winds: from the W (270 degrees) at 2 MPH (2 knots; 1.0 m/s)
Visibility: 6 or more miles (10+ km)
Ceiling: at least 12,000 feet AGL
Clouds: few clouds at 40000 feet AGL
Weather: no significant weather observed at this time

METAR text: ETNN 220020Z VRB01KT 9999 05/03 Q1031 BLU+
Conditions at: ETNN (NOERVENICH (GAF), DE) observed 0020 UTC 22 March 2019
Temperature: 5.0°C (41°F)
Dewpoint: 3.0°C (37°F) [RH = 87%]
Pressure (altimeter): 30.44 inches Hg (1031.0 mb)
Winds: variable direction winds at 1 MPH (1 knots; 0.5 m/s)
Visibility: 6 or more miles (10+ km)
Ceiling: unknown
Clouds: missing
Weather: no significant weather observed at this time

METAR text: ETNN 212320Z 00000KT 9999 04/03 Q1032 BLU+
Conditions at: ETNN (NOERVENICH (GAF), DE) observed 2320 UTC 21 March 2019
Temperature: 4.0°C (39°F)
Dewpoint: 3.0°C (37°F) [RH = 93%]
Pressure (altimeter): 30.47 inches Hg (1032.0 mb)
Winds: calm
Visibility: 6 or more miles (10+ km)
Ceiling: unknown
Clouds: missing
Weather: no significant weather observed at this time

METAR text: ETNN 212220Z 23001KT 9999 FEW380 06/04 Q1032 BLU+
Conditions at: ETNN (NOERVENICH (GAF), DE) observed 2220 UTC 21 March 2019
Temperature: 6.0°C (43°F)
Dewpoint: 4.0°C (39°F) [RH = 87%]
Pressure (altimeter): 30.47 inches Hg (1032.0 mb)
Winds: from the SW (230 degrees) at 1 MPH (1 knots; 0.5 m/s)
Visibility: 6 or more miles (10+ km)
Ceiling: at least 12,000 feet AGL
Clouds: few clouds at 38000 feet AGL
Weather: no significant weather observed at this time

METAR text: ETNN 212120Z 25002KT 9999 FEW380 08/04 Q1032 BLU+
Conditions at: ETNN (NOERVENICH (GAF), DE) observed 2120 UTC 21 March 2019
Temperature: 8.0°C (46°F)
Dewpoint: 4.0°C (39°F) [RH = 76%]
Pressure (altimeter): 30.47 inches Hg (1032.0 mb)
Winds: from the WSW (250 degrees) at 2 MPH (2 knots; 1.0 m/s)
Visibility: 6 or more miles (10+ km)
Ceiling: at least 12,000 feet AGL
Clouds: few clouds at 38000 feet AGL
Weather: no significant weather observed at this time

METAR text: ETNN 212020Z 29001KT 9999 FEW360 09/04 Q1032 BLU+
Conditions at: ETNN (NOERVENICH (GAF), DE) observed 2020 UTC 21 March 2019
Temperature: 9.0°C (48°F)
Dewpoint: 4.0°C (39°F) [RH = 71%]
Pressure (altimeter): 30.47 inches Hg (1032.0 mb)
Winds: from the WNW (290 degrees) at 1 MPH (1 knots; 0.5 m/s)
Visibility: 6 or more miles (10+ km)
Ceiling: at least 12,000 feet AGL
Clouds: few clouds at 36000 feet AGL
Weather: no significant weather observed at this time

METAR text: ETNN 211920Z 32002KT 9999 FEW360 11/05 Q1032 BLU+
Conditions at: ETNN (NOERVENICH (GAF), DE) observed 1920 UTC 21 March 2019
Temperature: 11.0°C (52°F)
Dewpoint: 5.0°C (41°F) [RH = 66%]
Pressure (altimeter): 30.47 inches Hg (1032.0 mb)
Winds: from the NW (320 degrees) at 2 MPH (2 knots; 1.0 m/s)
Visibility: 6 or more miles (10+ km)
Ceiling: at least 12,000 feet AGL
Clouds: few clouds at 36000 feet AGL
Weather: no significant weather observed at this time

METAR text: ETNN 211820Z 32002KT 9999 FEW360 12/05 Q1032 BLU+
Conditions at: ETNN (NOERVENICH (GAF), DE) observed 1820 UTC 21 March 2019
Temperature: 12.0°C (54°F)
Dewpoint: 5.0°C (41°F) [RH = 62%]
Pressure (altimeter): 30.47 inches Hg (1032.0 mb)
Winds: from the NW (320 degrees) at 2 MPH (2 knots; 1.0 m/s)
Visibility: 6 or more miles (10+ km)
Ceiling: at least 12,000 feet AGL
Clouds: few clouds at 36000 feet AGL
Weather: no significant weather observed at this time

METAR text: ETNN 211720Z 33004KT 9999 FEW360 14/05 Q1032 BLU+
Conditions at: ETNN (NOERVENICH (GAF), DE) observed 1720 UTC 21 March 2019
Temperature: 14.0°C (57°F)
Dewpoint: 5.0°C (41°F) [RH = 55%]
Pressure (altimeter): 30.47 inches Hg (1032.0 mb)
Winds: from the NNW (330 degrees) at 5 MPH (4 knots; 2.1 m/s)
Visibility: 6 or more miles (10+ km)
Ceiling: at least 12,000 feet AGL
Clouds: few clouds at 36000 feet AGL
Weather: no significant weather observed at this time

METAR text: ETNN 211620Z 34003KT 9999 FEW360 15/04 Q1032 BLU+
Conditions at: ETNN (NOERVENICH (GAF), DE) observed 1620 UTC 21 March 2019
Temperature: 15.0°C (59°F)
Dewpoint: 4.0°C (39°F) [RH = 48%]
Pressure (altimeter): 30.47 inches Hg (1032.0 mb)
Winds: from the NNW (340 degrees) at 3 MPH (3 knots; 1.5 m/s)
Visibility: 6 or more miles (10+ km)
Ceiling: at least 12,000 feet AGL
Clouds: few clouds at 36000 feet AGL
Weather: no significant weather observed at this time

METAR text: ETNN 211520Z 33002KT 9999 FEW360 16/02 Q1032 BLU+
Conditions at: ETNN (NOERVENICH (GAF), DE) observed 1520 UTC 21 March 2019
Temperature: 16.0°C (61°F)
Dewpoint: 2.0°C (36°F) [RH = 39%]
Pressure (altimeter): 30.47 inches Hg (1032.0 mb)
Winds: from the NNW (330 degrees) at 2 MPH (2 knots; 1.0 m/s)
Visibility: 6 or more miles (10+ km)
Ceiling: at least 12,000 feet AGL
Clouds: few clouds at 36000 feet AGL
Weather: no significant weather observed at this time

METAR text: ETNN 211420Z 03002KT 9999 FEW360 15/02 Q1033 BLU+
Conditions at: ETNN (NOERVENICH (GAF), DE) observed 1420 UTC 21 March 2019
Temperature: 15.0°C (59°F)
Dewpoint: 2.0°C (36°F) [RH = 41%]
Pressure (altimeter): 30.50 inches Hg (1033.0 mb)
Winds: from the NNE (30 degrees) at 2 MPH (2 knots; 1.0 m/s)
Visibility: 6 or more miles (10+ km)
Ceiling: at least 12,000 feet AGL
Clouds: few clouds at 36000 feet AGL
Weather: no significant weather observed at this time

METAR text: ETNN 211320Z VRB03KT 9999 SCT360 15/01 Q1033 BLU+
Conditions at: ETNN (NOERVENICH (GAF), DE) observed 1320 UTC 21 March 2019
Temperature: 15.0°C (59°F)
Dewpoint: 1.0°C (34°F) [RH = 39%]
Pressure (altimeter): 30.50 inches Hg (1033.0 mb)
Winds: variable direction winds at 3 MPH (3 knots; 1.5 m/s)
Visibility: 6 or more miles (10+ km)
Ceiling: at least 12,000 feet AGL
Clouds: scattered clouds at 36000 feet AGL
Weather: no significant weather observed at this time

METAR text: ETNN 211220Z VRB02KT 9999 BKN360 15/01 Q1034 BLU+
Conditions at: ETNN (NOERVENICH (GAF), DE) observed 1220 UTC 21 March 2019
Temperature: 15.0°C (59°F)
Dewpoint: 1.0°C (34°F) [RH = 39%]
Pressure (altimeter): 30.53 inches Hg (1034.0 mb)
Winds: variable direction winds at 2 MPH (2 knots; 1.0 m/s)
Visibility: 6 or more miles (10+ km)
Ceiling: 36000 feet AGL
Clouds: broken clouds at 36000 feet AGL
Weather: no significant weather observed at this time

METAR text: ETNN 211130Z 10003KT 9999 BKN320 14/02 Q1034 BLU+FCST CANCEL
Conditions at: ETNN (NOERVENICH (GAF), DE) observed 1130 UTC 21 March 2019
Temperature: 14.0°C (57°F)
Dewpoint: 2.0°C (36°F) [RH = 44%]
Pressure (altimeter): 30.53 inches Hg (1034.0 mb)
Winds: from the E (100 degrees) at 3 MPH (3 knots; 1.5 m/s)
Visibility: 6 or more miles (10+ km)
Ceiling: 32000 feet AGL
Clouds: broken clouds at 32000 feet AGL
Weather: no significant weather observed at this time

METAR text: ETNN 211120Z 12004KT 9999 BKN370 14/03 Q1034 BLU+BLU+
Conditions at: ETNN (NOERVENICH (GAF), DE) observed 1120 UTC 21 March 2019
Temperature: 14.0°C (57°F)
Dewpoint: 3.0°C (37°F) [RH = 47%]
Pressure (altimeter): 30.53 inches Hg (1034.0 mb)
Winds: from the ESE (120 degrees) at 5 MPH (4 knots; 2.1 m/s)
Visibility: 6 or more miles (10+ km)
Ceiling: 37000 feet AGL
Clouds: broken clouds at 37000 feet AGL
Weather: no significant weather observed at this time

METAR text: ETNN 211020Z 10003KT 9999 BKN370 13/03 Q1034 BLU+BLU+
Conditions at: ETNN (NOERVENICH (GAF), DE) observed 1020 UTC 21 March 2019
Temperature: 13.0°C (55°F)
Dewpoint: 3.0°C (37°F) [RH = 51%]
Pressure (altimeter): 30.53 inches Hg (1034.0 mb)
Winds: from the E (100 degrees) at 3 MPH (3 knots; 1.5 m/s)
Visibility: 6 or more miles (10+ km)
Ceiling: 37000 feet AGL
Clouds: broken clouds at 37000 feet AGL
Weather: no significant weather observed at this time

METAR text: ETNN 210920Z 14004KT 9999 BKN370 11/04 Q1035 BLU+BLU+
Conditions at: ETNN (NOERVENICH (GAF), DE) observed 0920 UTC 21 March 2019
Temperature: 11.0°C (52°F)
Dewpoint: 4.0°C (39°F) [RH = 62%]
Pressure (altimeter): 30.56 inches Hg (1035.0 mb)
Winds: from the SE (140 degrees) at 5 MPH (4 knots; 2.1 m/s)
Visibility: 6 or more miles (10+ km)
Ceiling: 37000 feet AGL
Clouds: broken clouds at 37000 feet AGL
Weather: no significant weather observed at this time

METAR text: ETNN 210820Z 15003KT 9999 BKN370 09/04 Q1035 BLU+BLU+
Conditions at: ETNN (NOERVENICH (GAF), DE) observed 0820 UTC 21 March 2019
Temperature: 9.0°C (48°F)
Dewpoint: 4.0°C (39°F) [RH = 71%]
Pressure (altimeter): 30.56 inches Hg (1035.0 mb)
Winds: from the SSE (150 degrees) at 3 MPH (3 knots; 1.5 m/s)
Visibility: 6 or more miles (10+ km)
Ceiling: 37000 feet AGL
Clouds: broken clouds at 37000 feet AGL
Weather: no significant weather observed at this time

METAR text: ETNN 210720Z 14003KT 9999 BKN320 06/03 Q1035 BLU+BLU+
Conditions at: ETNN (NOERVENICH (GAF), DE) observed 0720 UTC 21 March 2019
Temperature: 6.0°C (43°F)
Dewpoint: 3.0°C (37°F) [RH = 81%]
Pressure (altimeter): 30.56 inches Hg (1035.0 mb)
Winds: from the SE (140 degrees) at 3 MPH (3 knots; 1.5 m/s)
Visibility: 6 or more miles (10+ km)
Ceiling: 32000 feet AGL
Clouds: broken clouds at 32000 feet AGL
Weather: no significant weather observed at this time

METAR text: ETNN 210620Z 16003KT 9999 BKN320 01/01 Q1035 BLU+BLU+
Conditions at: ETNN (NOERVENICH (GAF), DE) observed 0620 UTC 21 March 2019
Temperature: 1.0°C (34°F)
Dewpoint: 1.0°C (34°F) [RH = 100%]
Pressure (altimeter): 30.56 inches Hg (1035.0 mb)
Winds: from the SSE (160 degrees) at 3 MPH (3 knots; 1.5 m/s)
Visibility: 6 or more miles (10+ km)
Ceiling: 32000 feet AGL
Clouds: broken clouds at 32000 feet AGL
Weather: no significant weather observed at this time

METAR text: ETNN 210520Z 17003KT 9999 BKN340 01/00 Q1034 BLU+BLU+
Conditions at: ETNN (NOERVENICH (GAF), DE) observed 0520 UTC 21 March 2019
Temperature: 1.0°C (34°F)
Dewpoint: 0.0°C (32°F) [RH = 93%]
Pressure (altimeter): 30.53 inches Hg (1034.0 mb)
Winds: from the S (170 degrees) at 3 MPH (3 knots; 1.5 m/s)
Visibility: 6 or more miles (10+ km)
Ceiling: 34000 feet AGL
Clouds: broken clouds at 34000 feet AGL
Weather: no significant weather observed at this time

METAR text: ETNN 210420Z 14002KT 9999 BKN340 01/00 Q1034 BLU+
Conditions at: ETNN (NOERVENICH (GAF), DE) observed 0420 UTC 21 March 2019
Temperature: 1.0°C (34°F)
Dewpoint: 0.0°C (32°F) [RH = 93%]
Pressure (altimeter): 30.53 inches Hg (1034.0 mb)
Winds: from the SE (140 degrees) at 2 MPH (2 knots; 1.0 m/s)
Visibility: 6 or more miles (10+ km)
Ceiling: 34000 feet AGL
Clouds: broken clouds at 34000 feet AGL
Weather: no significant weather observed at this time

METAR text: ETNN 210320Z 15002KT 9999 SCT340 02/01 Q1034 BLU+
Conditions at: ETNN (NOERVENICH (GAF), DE) observed 0320 UTC 21 March 2019
Temperature: 2.0°C (36°F)
Dewpoint: 1.0°C (34°F) [RH = 93%]
Pressure (altimeter): 30.53 inches Hg (1034.0 mb)
Winds: from the SSE (150 degrees) at 2 MPH (2 knots; 1.0 m/s)
Visibility: 6 or more miles (10+ km)
Ceiling: at least 12,000 feet AGL
Clouds: scattered clouds at 34000 feet AGL
Weather: no significant weather observed at this time

METAR text: ETNN 210220Z VRB02KT 9999 SCT300 02/01 Q1034 BLU+
Conditions at: ETNN (NOERVENICH (GAF), DE) observed 0220 UTC 21 March 2019
Temperature: 2.0°C (36°F)
Dewpoint: 1.0°C (34°F) [RH = 93%]
Pressure (altimeter): 30.53 inches Hg (1034.0 mb)
Winds: variable direction winds at 2 MPH (2 knots; 1.0 m/s)
Visibility: 6 or more miles (10+ km)
Ceiling: at least 12,000 feet AGL
Clouds: scattered clouds at 30000 feet AGL
Weather: no significant weather observed at this time

METAR text: ETNN 210120Z VRB01KT 9999 SCT240 04/02 Q1034 BLU+
Conditions at: ETNN (NOERVENICH (GAF), DE) observed 0120 UTC 21 March 2019
Temperature: 4.0°C (39°F)
Dewpoint: 2.0°C (36°F) [RH = 87%]
Pressure (altimeter): 30.53 inches Hg (1034.0 mb)
Winds: variable direction winds at 1 MPH (1 knots; 0.5 m/s)
Visibility: 6 or more miles (10+ km)
Ceiling: at least 12,000 feet AGL
Clouds: scattered clouds at 24000 feet AGL
Weather: no significant weather observed at this time

METAR text: ETNN 210020Z VRB02KT 9999 SCT350 04/03 Q1034 BLU+
Conditions at: ETNN (NOERVENICH (GAF), DE) observed 0020 UTC 21 March 2019
Temperature: 4.0°C (39°F)
Dewpoint: 3.0°C (37°F) [RH = 93%]
Pressure (altimeter): 30.53 inches Hg (1034.0 mb)
Winds: variable direction winds at 2 MPH (2 knots; 1.0 m/s)
Visibility: 6 or more miles (10+ km)
Ceiling: at least 12,000 feet AGL
Clouds: scattered clouds at 35000 feet AGL
Weather: no significant weather observed at this time

Forecast for: AMD
Text: TAF AMD ETNN 221115Z 2211/2218 12005KT 9999 NSW SCT300 CANCEL 1115 BY ETGL
Forecast period: 1100 to 1800 UTC 22 March 2019
Forecast type: FROM: standard forecast or significant change
Winds: from the ESE (120 degrees) at 6 MPH (5 knots; 2.6 m/s)
Visibility: 6 or more miles 10+ km)
Ceiling: at least 12,000 feet AGL
Clouds: scattered clouds at 30000 feet AGL
Weather: NSW  (no significant weather)